createdAt,value
2024-01-20T06:39:20.222Z,97878.06
2024-01-20T06:41:47.223Z,97875.06
2024-01-20T06:44:14.258Z,97880.38
2024-01-20T06:46:41.363Z,97887.09
2024-01-20T06:49:08.436Z,97892.84
2024-01-20T06:51:35.499Z,97884.63
2024-01-20T06:54:02.555Z,97892.69
2024-01-20T06:56:29.556Z,97898.44
2024-01-20T06:58:57.834Z,97901.81
2024-01-20T07:01:25.371Z,97896.50
2024-01-20T07:03:52.338Z,97901.94
2024-01-20T07:06:19.288Z,97906.38
2024-01-20T07:08:46.121Z,97908.47
2024-01-20T07:11:12.817Z,97896.59
2024-01-20T07:13:39.513Z,97914.78
2024-01-20T07:16:06.286Z,97908.09
2024-01-20T07:18:33.013Z,97919.91
2024-01-20T07:20:59.705Z,97921.38
2024-01-20T07:23:26.549Z,97931.69
2024-01-20T07:25:53.186Z,97927.56
2024-01-20T07:28:19.885Z,97939.16
2024-01-20T07:30:46.675Z,97937.22
2024-01-20T07:33:13.441Z,97947.00
2024-01-20T07:35:40.416Z,97948.25
2024-01-20T07:38:07.151Z,97951.38
2024-01-20T07:40:33.832Z,97954.56
2024-01-20T07:43:00.618Z,97951.81
2024-01-20T07:45:27.558Z,97963.97
2024-01-20T07:47:54.368Z,97969.94
2024-01-20T07:50:21.196Z,97971.06
2024-01-20T07:52:48.075Z,97977.53
2024-01-20T07:55:14.783Z,97986.28
2024-01-20T07:57:41.622Z,97984.56
2024-01-20T08:00:08.460Z,97987.94
2024-01-20T08:02:35.399Z,97993.31
2024-01-20T08:05:02.293Z,97990.56
2024-01-20T08:07:29.252Z,97998.50
2024-01-20T08:09:56.143Z,98006.09
2024-01-20T08:12:23.117Z,98003.97
2024-01-20T08:14:50.077Z,98007.31
2024-01-20T08:17:16.954Z,98001.69
2024-01-20T08:19:43.980Z,98005.69
2024-01-20T08:22:10.849Z,98005.94
2024-01-20T08:24:37.865Z,98016.03
2024-01-20T08:27:04.876Z,98020.78
2024-01-20T08:29:31.818Z,98015.34
2024-01-20T08:31:58.727Z,98018.81
2024-01-20T08:34:25.788Z,98020.91
2024-01-20T08:36:52.889Z,98016.22
2024-01-20T10:58:46.515Z,98135.38
2024-01-20T11:01:13.511Z,98136.09
2024-01-20T11:03:40.443Z,98131.97
2024-01-20T11:06:07.341Z,98130.81
2024-01-20T11:08:34.158Z,98131.66
2024-01-20T11:11:00.867Z,98124.31
2024-01-20T11:13:27.628Z,98133.56
2024-01-20T11:15:54.453Z,98127.69
2024-01-20T11:18:21.553Z,98134.28
2024-01-20T11:20:48.283Z,98135.66
2024-01-20T11:23:15.062Z,98132.38
2024-01-20T11:25:41.879Z,98132.19
2024-01-20T11:28:08.669Z,98128.91
2024-01-20T11:30:35.409Z,98128.84
2024-01-20T11:33:02.378Z,98128.84
2024-01-20T11:35:29.191Z,98123.44
2024-01-20T11:37:56.112Z,98123.88
2024-01-20T11:40:22.874Z,98128.31
2024-01-20T11:42:49.991Z,98125.09
2024-01-20T11:45:16.733Z,98117.88
2024-01-20T11:47:43.553Z,98113.34
2024-01-20T11:50:10.351Z,98110.72
2024-01-20T11:52:37.266Z,98106.19
2024-01-20T11:55:03.950Z,98107.44
2024-01-20T11:57:30.694Z,98115.69
2024-01-20T11:59:57.451Z,98117.94
2024-01-20T12:02:24.529Z,98107.16
2024-01-20T12:04:52.259Z,98108.75
2024-01-20T12:07:20.495Z,98113.28
2024-01-20T12:09:47.789Z,98112.50
2024-01-20T12:12:14.744Z,98110.31
2024-01-20T12:14:41.692Z,98102.19
2024-01-20T12:17:08.765Z,98105.78
2024-01-20T12:19:35.982Z,98104.25
2024-01-20T12:22:02.951Z,98108.47
2024-01-20T13:15:06.312Z,98091.75
2024-01-20T13:17:33.631Z,98086.50
2024-01-20T13:20:00.633Z,98088.72
2024-01-20T13:22:27.533Z,98096.66
2024-01-20T13:24:55.274Z,98099.69
2024-01-20T13:27:22.252Z,98103.00
2024-01-20T13:29:49.583Z,98097.38
2024-01-20T17:40:36.000Z,98230.66
2024-01-20T17:49:02.249Z,98238.56
2024-01-20T17:51:33.027Z,98245.81
2024-01-20T17:54:01.377Z,98242.13
2024-01-20T17:56:33.503Z,98236.28
2024-01-20T17:59:04.780Z,98248.03
2024-01-20T18:01:33.904Z,98255.31
2024-01-20T18:04:02.880Z,98248.44
2024-01-20T18:06:31.210Z,98254.63
2024-01-20T18:08:59.143Z,98257.59
2024-01-20T18:11:28.014Z,98272.34
2024-01-20T18:13:56.211Z,98272.44
2024-01-20T18:16:23.713Z,98267.50
2024-01-20T18:18:51.542Z,98262.00
2024-01-20T18:21:19.079Z,98267.31
2024-01-20T18:23:46.183Z,98267.66
2024-01-20T18:26:13.359Z,98275.53
2024-01-20T18:28:40.305Z,98273.97
2024-01-20T19:29:56.385Z,98315.41
2024-01-20T19:53:45.261Z,98316.81
2024-01-20T19:56:12.153Z,98327.09
2024-01-20T20:09:33.298Z,98319.09
2024-01-20T20:32:03.740Z,98314.41
2024-01-20T20:34:33.236Z,98314.00
2024-01-20T21:37:37.192Z,98317.50
2024-01-20T22:38:03.168Z,98349.84
2024-01-20T22:40:32.719Z,98350.66
2024-01-20T23:40:23.928Z,98356.56
2024-01-20T23:42:50.973Z,98353.31
2024-01-20T23:45:17.948Z,98354.66
2024-01-20T23:47:45.005Z,98348.25
2024-01-20T23:50:12.335Z,98352.13
2024-01-20T23:52:39.696Z,98342.31
2024-01-20T23:55:07.113Z,98346.03
2024-01-20T23:57:34.619Z,98341.16
